createdAt,value
2018-01-11T00:00:19.013Z,317.50
2018-01-11T00:01:19.008Z,393.00
2018-01-11T00:02:19.001Z,684.80
2018-01-11T00:03:18.998Z,390.30
2018-01-11T00:04:18.982Z,331.10
2018-01-11T00:05:18.974Z,480.10
2018-01-11T00:06:18.965Z,554.30
2018-01-11T00:07:18.998Z,383.20
2018-01-11T00:08:18.951Z,431.90
2018-01-11T00:09:18.943Z,338.60
2018-01-11T00:10:18.936Z,437.10
2018-01-11T00:11:18.929Z,344.70
2018-01-11T00:12:18.921Z,406.90
2018-01-11T00:13:18.909Z,540.50
2018-01-11T00:14:18.905Z,310.80
2018-01-11T00:15:18.898Z,412.20
2018-01-11T00:16:18.890Z,974.10
2018-01-11T00:17:18.900Z,1047.20
2018-01-11T00:18:18.874Z,1053.90
2018-01-11T00:19:18.867Z,354.90
2018-01-11T00:20:18.859Z,676.10
2018-01-11T00:21:18.850Z,1027.70
2018-01-11T00:22:18.844Z,369.30
2018-01-11T00:23:18.836Z,459.80
2018-01-11T00:24:18.834Z,832.10
2018-01-11T00:25:18.820Z,1217.90
2018-01-11T00:26:18.812Z,277.80
2018-01-11T00:27:18.805Z,552.20
2018-01-11T00:28:18.802Z,761.20
2018-01-11T00:29:18.790Z,496.60
2018-01-11T00:30:18.781Z,288.50
2018-01-11T00:31:18.777Z,640.20
2018-01-11T00:32:18.767Z,228.70
2018-01-11T00:33:18.757Z,328.00
2018-01-11T00:34:18.752Z,831.50
2018-01-11T00:35:18.744Z,469.20
2018-01-11T00:36:18.738Z,448.70
2018-01-11T00:37:18.726Z,547.10
2018-01-11T00:38:18.719Z,890.20
2018-01-11T00:39:18.710Z,622.00
2018-01-11T00:40:18.702Z,383.20
2018-01-11T00:41:18.695Z,754.50
2018-01-11T00:42:18.688Z,316.80
2018-01-11T00:43:18.679Z,843.90
2018-01-11T00:44:18.674Z,760.60
2018-01-11T00:45:18.667Z,899.40
2018-01-11T00:46:18.661Z,572.20
2018-01-11T00:47:18.646Z,604.20
2018-01-11T00:48:18.646Z,705.20
2018-01-11T00:49:18.634Z,774.40
2018-01-11T00:50:18.623Z,765.00
2018-01-11T00:51:18.619Z,404.50
2018-01-11T00:52:18.608Z,759.50
2018-01-11T00:53:18.601Z,391.80
2018-01-11T00:54:18.592Z,454.50
2018-01-11T00:55:18.585Z,344.70
2018-01-11T00:56:18.580Z,316.40
2018-01-11T00:57:18.569Z,428.30
2018-01-11T00:58:18.563Z,201.10
2018-01-11T00:59:18.554Z,168.60
2018-01-11T01:00:18.546Z,141.60
2018-01-11T01:01:18.537Z,184.80
2018-01-11T01:02:18.529Z,193.60
2018-01-11T01:03:18.522Z,246.00
2018-01-11T01:04:18.544Z,537.70
2018-01-11T01:05:18.508Z,211.50
2018-01-11T01:06:18.499Z,611.40
2018-01-11T01:07:18.495Z,320.50
2018-01-11T01:08:18.481Z,216.50
2018-01-11T01:09:18.473Z,652.20
2018-01-11T01:10:18.473Z,565.80
2018-01-11T01:11:18.459Z,648.40
2018-01-11T01:12:18.458Z,184.50
2018-01-11T01:13:18.443Z,296.00
2018-01-11T01:14:18.437Z,537.60
2018-01-11T01:15:18.425Z,299.30
2018-01-11T01:16:18.422Z,351.80
2018-01-11T01:17:18.412Z,359.30
2018-01-11T01:18:18.404Z,606.70
2018-01-11T01:19:18.400Z,554.20
2018-01-11T01:20:18.388Z,797.30
2018-01-11T01:21:18.379Z,487.20
2018-01-11T01:22:18.372Z,780.70
2018-01-11T01:23:18.365Z,666.10
2018-01-11T01:24:18.356Z,767.90
2018-01-11T01:25:18.351Z,521.40
2018-01-11T01:26:18.341Z,427.80
2018-01-11T01:27:18.335Z,781.10
2018-01-11T01:28:18.327Z,968.80
2018-01-11T01:29:18.313Z,655.50
2018-01-11T01:30:18.308Z,560.70
2018-01-11T01:31:18.299Z,479.80
2018-01-11T01:32:18.292Z,733.70
2018-01-11T01:33:18.284Z,205.60
2018-01-11T01:34:18.280Z,223.20
2018-01-11T01:35:18.265Z,445.20
2018-01-11T01:36:18.259Z,254.60
2018-01-11T01:37:18.251Z,228.30
2018-01-11T01:38:18.244Z,273.90
2018-01-11T01:39:18.238Z,221.00
2018-01-11T01:40:18.241Z,182.20
2018-01-11T01:41:18.220Z,340.20
2018-01-11T01:42:18.216Z,253.90
2018-01-11T01:43:18.207Z,445.60
2018-01-11T01:44:18.197Z,208.10
2018-01-11T01:45:18.187Z,171.40
2018-01-11T01:46:18.181Z,280.20
2018-01-11T01:47:18.173Z,192.30
2018-01-11T01:48:18.163Z,188.30
2018-01-11T01:49:18.155Z,257.30
2018-01-11T01:50:18.156Z,192.90
2018-01-11T01:51:18.141Z,226.80
2018-01-11T01:52:18.135Z,421.20
2018-01-11T01:53:18.123Z,328.50
2018-01-11T01:54:18.118Z,337.00
2018-01-11T01:55:18.107Z,317.50
2018-01-11T01:56:18.100Z,540.90
2018-01-11T01:57:18.110Z,559.50
2018-01-11T01:58:18.111Z,794.80
2018-01-11T01:59:18.076Z,259.00
2018-01-11T02:00:18.068Z,187.70
2018-01-11T02:01:18.063Z,197.50
2018-01-11T02:02:18.051Z,187.30
2018-01-11T02:03:18.047Z,230.60
2018-01-11T02:04:18.035Z,200.20
2018-01-11T02:05:18.030Z,351.10
2018-01-11T02:06:18.021Z,237.10
2018-01-11T02:07:18.012Z,193.50
2018-01-11T02:08:18.007Z,327.40
2018-01-11T02:09:17.995Z,325.60
2018-01-11T02:10:17.987Z,496.40
2018-01-11T02:11:17.980Z,170.70
2018-01-11T02:12:17.972Z,591.80
2018-01-11T02:13:17.967Z,304.40
2018-01-11T02:14:17.955Z,451.60
2018-01-11T02:15:17.954Z,155.40
2018-01-11T02:16:17.940Z,346.70
2018-01-11T02:17:17.932Z,385.30
2018-01-11T02:18:17.922Z,313.00
2018-01-11T02:19:17.918Z,261.10
2018-01-11T02:20:17.906Z,106.50
2018-01-11T02:21:17.899Z,112.70
2018-01-11T02:22:17.895Z,201.60
2018-01-11T02:23:17.885Z,217.70
2018-01-11T02:24:17.876Z,180.70
2018-01-11T02:25:17.867Z,425.20
2018-01-11T02:26:17.860Z,322.90
2018-01-11T02:27:17.850Z,131.90
2018-01-11T02:28:17.844Z,108.20
2018-01-11T02:29:17.839Z,242.00
2018-01-11T02:30:17.828Z,94.20
2018-01-11T02:31:17.823Z,110.10
2018-01-11T02:32:17.811Z,99.00
2018-01-11T02:33:17.802Z,108.90
2018-01-11T02:34:17.798Z,98.10
2018-01-11T02:35:17.789Z,270.20
2018-01-11T02:36:17.783Z,147.60
2018-01-11T02:37:17.774Z,106.40
2018-01-11T02:38:17.767Z,116.00
2018-01-11T02:39:17.756Z,111.20
2018-01-11T02:40:17.750Z,89.20
2018-01-11T02:41:17.740Z,89.90
2018-01-11T02:42:17.732Z,87.40
2018-01-11T02:43:17.727Z,82.20
2018-01-11T02:44:17.718Z,95.30
2018-01-11T02:45:17.709Z,107.00
2018-01-11T02:46:17.702Z,110.80
2018-01-11T02:47:17.695Z,135.90
2018-01-11T02:48:17.686Z,114.40
2018-01-11T02:49:17.678Z,99.60
2018-01-11T02:50:17.674Z,105.60
2018-01-11T02:51:17.663Z,133.40
2018-01-11T02:52:17.658Z,228.00
2018-01-11T02:53:17.646Z,96.60
2018-01-11T02:54:17.639Z,119.70
2018-01-11T02:55:17.630Z,136.50
2018-01-11T02:56:17.623Z,88.90
2018-01-11T02:57:17.616Z,106.00
2018-01-11T02:58:17.608Z,91.50
2018-01-11T02:59:17.604Z,96.70
2018-01-11T03:00:17.592Z,82.60
2018-01-11T03:01:17.583Z,83.40
2018-01-11T03:02:17.573Z,75.90
2018-01-11T03:03:17.573Z,79.40
2018-01-11T03:04:17.558Z,90.20
2018-01-11T03:05:17.550Z,113.50
2018-01-11T03:06:17.546Z,89.40
2018-01-11T03:07:17.535Z,80.50
2018-01-11T03:08:17.528Z,78.90
2018-01-11T03:09:17.519Z,82.70
2018-01-11T03:10:17.512Z,81.60
2018-01-11T03:11:17.501Z,79.40
2018-01-11T03:12:17.495Z,91.90
2018-01-11T03:13:17.487Z,146.50
2018-01-11T03:14:17.479Z,95.30
2018-01-11T03:15:17.473Z,81.00
2018-01-11T03:16:17.465Z,65.70
2018-01-11T03:17:17.463Z,99.00
2018-01-11T03:18:17.446Z,64.80
2018-01-11T03:19:17.441Z,62.80
2018-01-11T03:20:17.435Z,63.60
2018-01-11T03:21:17.424Z,69.40
2018-01-11T03:22:17.415Z,68.50
2018-01-11T03:23:17.409Z,79.20
2018-01-11T03:24:17.404Z,73.00
2018-01-11T03:25:17.391Z,82.30
2018-01-11T03:26:17.383Z,110.30
2018-01-11T03:27:17.377Z,92.90
2018-01-11T03:28:17.368Z,104.20
2018-01-11T03:29:17.359Z,100.80
2018-01-11T03:30:17.353Z,121.10
2018-01-11T03:31:17.355Z,64.10
2018-01-11T03:32:17.336Z,60.30
2018-01-11T03:33:17.328Z,62.00
2018-01-11T03:34:17.321Z,63.60
2018-01-11T03:35:17.315Z,63.60
2018-01-11T03:36:17.304Z,65.60
2018-01-11T03:37:17.298Z,60.40
2018-01-11T03:38:17.288Z,72.70
2018-01-11T03:39:17.295Z,68.60
2018-01-11T03:40:17.274Z,76.10
2018-01-11T03:41:17.265Z,83.20
2018-01-11T03:42:17.257Z,70.40
2018-01-11T03:43:17.250Z,60.60
2018-01-11T03:44:17.244Z,61.80
2018-01-11T03:45:17.233Z,66.10
2018-01-11T03:46:17.231Z,75.70
2018-01-11T03:47:17.219Z,78.50
2018-01-11T03:48:17.210Z,71.30
2018-01-11T03:49:17.204Z,80.70
2018-01-11T03:50:17.196Z,69.00
2018-01-11T03:51:17.187Z,83.10
2018-01-11T03:52:17.180Z,88.30
2018-01-11T03:53:17.172Z,73.20
2018-01-11T03:54:17.163Z,118.60
2018-01-11T03:55:17.156Z,76.60
2018-01-11T03:56:17.148Z,74.00
2018-01-11T03:57:17.140Z,70.90
2018-01-11T03:58:17.130Z,87.40
2018-01-11T03:59:17.126Z,66.00
2018-01-11T04:00:17.118Z,73.10
2018-01-11T04:01:17.110Z,83.90
2018-01-11T04:02:17.107Z,93.10
2018-01-11T04:03:17.095Z,123.60
2018-01-11T04:04:17.086Z,76.60
2018-01-11T04:05:17.078Z,72.30
2018-01-11T04:06:17.076Z,70.80
2018-01-11T04:07:17.064Z,66.70
2018-01-11T04:08:17.060Z,73.60
2018-01-11T04:09:17.050Z,76.00
2018-01-11T04:10:17.039Z,77.70
2018-01-11T04:11:17.034Z,71.90
2018-01-11T04:12:17.025Z,85.90
2018-01-11T04:13:17.018Z,75.60
2018-01-11T04:14:17.014Z,82.80
2018-01-11T04:15:17.001Z,87.30
2018-01-11T04:16:16.991Z,73.90
2018-01-11T04:17:16.984Z,74.50
2018-01-11T04:18:16.976Z,82.10
2018-01-11T04:19:16.968Z,79.30
2018-01-11T04:20:16.963Z,128.00
2018-01-11T04:21:16.952Z,122.80
2018-01-11T04:22:16.945Z,116.90
2018-01-11T04:23:16.938Z,97.00
2018-01-11T04:24:16.930Z,86.00
2018-01-11T04:25:16.919Z,104.50
2018-01-11T04:26:16.914Z,106.50
2018-01-11T04:27:16.908Z,95.00
2018-01-11T04:28:16.903Z,93.50
2018-01-11T04:29:16.892Z,85.50
2018-01-11T04:30:16.882Z,74.70
2018-01-11T04:31:16.878Z,81.40
2018-01-11T04:32:16.864Z,97.40
2018-01-11T04:33:16.864Z,101.70
2018-01-11T04:34:16.850Z,110.40
2018-01-11T04:35:16.842Z,98.50
2018-01-11T04:36:16.838Z,103.80
2018-01-11T04:37:16.827Z,106.90
2018-01-11T04:38:16.823Z,102.80
2018-01-11T04:39:16.810Z,103.10
2018-01-11T04:40:16.807Z,91.70
2018-01-11T04:41:16.815Z,86.80
2018-01-11T04:42:16.786Z,78.30
2018-01-11T04:43:16.779Z,72.20
2018-01-11T04:44:16.772Z,107.10
2018-01-11T04:45:16.761Z,83.90
2018-01-11T04:46:16.755Z,80.80
2018-01-11T04:47:16.747Z,81.10
2018-01-11T04:48:16.739Z,76.50
2018-01-11T04:49:16.733Z,74.40
2018-01-11T04:50:16.727Z,78.20
2018-01-11T04:51:16.715Z,79.80
2018-01-11T04:52:16.707Z,94.70
2018-01-11T04:53:16.699Z,83.00
2018-01-11T04:54:16.691Z,79.90
2018-01-11T04:55:16.684Z,71.30
2018-01-11T04:56:16.675Z,68.50
2018-01-11T04:57:16.665Z,81.70
2018-01-11T04:58:16.658Z,75.60
2018-01-11T04:59:16.651Z,86.90
2018-01-11T05:00:16.639Z,75.90
2018-01-11T05:01:16.632Z,84.60
2018-01-11T05:02:16.628Z,81.70
2018-01-11T05:03:16.623Z,78.80
2018-01-11T05:04:16.612Z,80.20
2018-01-11T05:05:16.603Z,82.40
2018-01-11T05:06:16.591Z,83.90
2018-01-11T05:07:16.585Z,89.90
2018-01-11T05:08:16.574Z,93.70
2018-01-11T05:09:16.574Z,88.70
2018-01-11T05:10:16.569Z,90.40
2018-01-11T05:11:16.552Z,91.80
2018-01-11T05:12:16.544Z,85.40
2018-01-11T05:13:16.541Z,92.40
2018-01-11T05:14:16.530Z,86.70
2018-01-11T05:15:16.518Z,90.20
2018-01-11T05:16:16.511Z,84.90
2018-01-11T05:17:16.500Z,96.80
2018-01-11T05:18:16.494Z,100.20
2018-01-11T05:19:16.485Z,102.30
2018-01-11T05:20:16.477Z,102.10
2018-01-11T05:21:16.471Z,100.00
2018-01-11T05:22:16.460Z,98.80
2018-01-11T05:23:16.453Z,107.10
2018-01-11T05:24:16.443Z,107.60
2018-01-11T05:25:16.434Z,104.40
2018-01-11T05:26:16.426Z,117.50
2018-01-11T05:27:16.418Z,109.30
2018-01-11T05:28:16.412Z,106.00
2018-01-11T05:29:16.399Z,106.40
2018-01-11T05:30:16.392Z,101.70
2018-01-11T05:31:16.386Z,106.50
2018-01-11T05:32:16.377Z,115.70
2018-01-11T05:33:16.369Z,123.70
2018-01-11T05:34:16.359Z,106.50
2018-01-11T05:35:16.354Z,118.40
2018-01-11T05:36:16.344Z,119.10
2018-01-11T05:37:16.336Z,104.70
2018-01-11T05:38:16.328Z,111.60
2018-01-11T05:39:16.318Z,101.00
2018-01-11T05:40:16.313Z,116.50
2018-01-11T05:41:16.302Z,133.70
2018-01-11T05:42:16.295Z,125.20
2018-01-11T05:43:16.290Z,114.70
2018-01-11T05:44:16.277Z,125.40
2018-01-11T05:45:16.271Z,120.90
2018-01-11T05:46:16.261Z,113.00
2018-01-11T05:47:16.251Z,102.20
2018-01-11T05:48:16.242Z,131.40
2018-01-11T05:49:16.236Z,125.80
2018-01-11T05:50:16.229Z,119.00
2018-01-11T05:51:16.218Z,117.70
2018-01-11T05:52:16.211Z,119.30
2018-01-11T05:53:16.201Z,117.60
2018-01-11T05:54:16.194Z,109.20
2018-01-11T05:55:16.185Z,106.10
2018-01-11T05:56:16.186Z,111.90
2018-01-11T05:57:16.169Z,111.10
2018-01-11T05:58:16.162Z,103.80
2018-01-11T05:59:16.156Z,121.30
2018-01-11T06:00:16.147Z,121.10
2018-01-11T06:01:16.136Z,99.10
2018-01-11T06:02:16.127Z,98.50
2018-01-11T06:03:16.118Z,101.40
2018-01-11T06:04:16.117Z,99.90
2018-01-11T06:05:16.103Z,110.50
2018-01-11T06:06:16.095Z,112.90
2018-01-11T06:07:16.086Z,90.60
2018-01-11T06:08:16.078Z,87.10
2018-01-11T06:09:16.069Z,88.30
2018-01-11T06:10:16.061Z,93.60
2018-01-11T06:11:16.060Z,93.40
2018-01-11T06:12:16.047Z,88.30
2018-01-11T06:13:16.039Z,89.00
2018-01-11T06:14:16.034Z,81.50
2018-01-11T06:15:16.024Z,83.40
2018-01-11T06:16:16.014Z,87.40
2018-01-11T06:17:16.004Z,99.90
2018-01-11T06:18:16.000Z,94.80
2018-01-11T06:19:15.990Z,93.90
2018-01-11T06:20:15.982Z,103.30
2018-01-11T06:21:15.975Z,89.10
2018-01-11T06:22:15.965Z,84.30
2018-01-11T06:23:15.958Z,94.40
2018-01-11T06:24:15.950Z,83.50
2018-01-11T06:25:15.951Z,100.90
2018-01-11T06:26:15.934Z,90.60
2018-01-11T06:27:15.954Z,89.00
2018-01-11T06:28:15.916Z,88.60
2018-01-11T06:29:15.925Z,89.90
2018-01-11T06:30:15.902Z,106.90
2018-01-11T06:31:15.894Z,87.90
2018-01-11T06:32:15.897Z,93.90
2018-01-11T06:33:15.878Z,95.90
2018-01-11T06:34:15.869Z,94.10
2018-01-11T06:35:15.859Z,98.00
2018-01-11T06:36:15.855Z,96.70
2018-01-11T06:37:15.846Z,93.80
2018-01-11T06:38:15.843Z,97.70
2018-01-11T06:39:15.840Z,95.40
2018-01-11T06:40:15.825Z,92.80
2018-01-11T06:41:15.816Z,109.50
2018-01-11T06:42:15.808Z,91.70
2018-01-11T06:43:15.805Z,94.70
2018-01-11T06:44:15.793Z,92.60
2018-01-11T06:45:15.784Z,100.20
2018-01-11T06:46:15.777Z,125.70
2018-01-11T06:47:15.769Z,100.70
2018-01-11T06:48:15.762Z,103.60
2018-01-11T06:49:15.752Z,110.10
2018-01-11T06:50:15.746Z,105.50
2018-01-11T06:51:15.738Z,121.30
2018-01-11T06:52:23.375Z,109.30
2018-01-11T06:54:09.124Z,123.90
2018-01-11T06:55:09.101Z,122.20
2018-01-11T06:57:02.493Z,135.50
2018-01-11T06:58:02.474Z,118.40
2018-01-11T06:59:56.864Z,108.10
2018-01-11T07:00:56.835Z,109.50
2018-01-11T07:01:56.825Z,102.30
2018-01-11T07:02:56.818Z,107.60
2018-01-11T07:03:56.807Z,116.00
2018-01-11T07:04:56.802Z,98.60
2018-01-11T07:05:56.792Z,98.70
2018-01-11T07:06:56.788Z,100.90
2018-01-11T07:07:56.782Z,142.40
2018-01-11T07:08:56.771Z,107.00
2018-01-11T07:09:56.763Z,112.60
2018-01-11T07:10:56.751Z,131.50
2018-01-11T07:11:56.748Z,121.70
2018-01-11T07:12:56.744Z,142.40
2018-01-11T07:13:56.735Z,117.10
2018-01-11T07:14:56.738Z,126.30
2018-01-11T07:15:56.716Z,109.30
2018-01-11T07:16:56.717Z,115.20
2018-01-11T07:17:56.787Z,112.30
2018-01-11T07:18:56.697Z,99.30
2018-01-11T07:19:56.693Z,105.50
2018-01-11T07:20:56.681Z,97.30
2018-01-11T07:21:56.672Z,95.10
2018-01-11T07:22:56.706Z,103.00
2018-01-11T07:23:56.661Z,99.70
2018-01-11T07:24:56.652Z,96.70
2018-01-11T07:25:56.649Z,106.50
2018-01-11T07:26:56.637Z,102.20
2018-01-11T07:27:56.636Z,105.20
2018-01-11T07:28:56.621Z,104.60
2018-01-11T07:29:56.620Z,101.20
2018-01-11T07:30:56.604Z,107.20
2018-01-11T07:31:56.599Z,107.00
2018-01-11T07:32:56.589Z,135.80
2018-01-11T07:33:56.592Z,110.00
2018-01-11T07:34:56.575Z,133.80
2018-01-11T07:35:56.570Z,112.40
2018-01-11T07:36:56.566Z,113.00
2018-01-11T07:37:56.551Z,149.10
2018-01-11T07:38:56.542Z,114.90
2018-01-11T07:39:56.535Z,133.20
2018-01-11T07:40:56.535Z,138.00
2018-01-11T07:41:56.524Z,119.40
2018-01-11T07:42:56.516Z,109.90
2018-01-11T07:43:56.504Z,122.40
2018-01-11T07:44:56.506Z,110.90
2018-01-11T07:45:56.496Z,111.20
2018-01-11T07:46:56.490Z,106.50
2018-01-11T07:47:56.482Z,113.50
2018-01-11T07:48:56.470Z,109.40
2018-01-11T07:49:56.468Z,100.70
2018-01-11T07:50:56.456Z,102.90
2018-01-11T07:51:56.450Z,103.70
2018-01-11T07:52:56.448Z,123.30
2018-01-11T07:53:56.435Z,108.20
2018-01-11T07:54:56.428Z,103.30
2018-01-11T07:55:56.421Z,121.60
2018-01-11T07:56:56.415Z,120.10
2018-01-11T07:57:56.408Z,110.10
2018-01-11T07:58:56.408Z,108.90
2018-01-11T07:59:56.396Z,121.00
2018-01-11T08:00:56.385Z,107.90
2018-01-11T08:01:56.373Z,116.90
2018-01-11T08:02:56.370Z,109.20
2018-01-11T08:03:56.363Z,110.80
2018-01-11T08:04:56.358Z,98.70
2018-01-11T08:05:56.349Z,102.70
2018-01-11T08:06:56.340Z,99.70
2018-01-11T08:07:56.338Z,107.80
2018-01-11T08:08:56.322Z,99.90
2018-01-11T08:09:56.319Z,109.00
2018-01-11T08:10:56.313Z,98.00
2018-01-11T08:11:56.303Z,103.00
2018-01-11T08:12:56.296Z,110.70
2018-01-11T08:13:56.288Z,96.60
2018-01-11T08:14:56.313Z,94.50
2018-01-11T08:15:56.273Z,96.50
2018-01-11T08:16:56.266Z,96.70
2018-01-11T08:17:56.259Z,101.40
2018-01-11T08:18:56.251Z,103.10
2018-01-11T08:19:56.244Z,92.00
2018-01-11T08:20:56.237Z,86.30
2018-01-11T08:21:56.228Z,92.80
2018-01-11T08:22:56.223Z,104.20
2018-01-11T08:23:56.213Z,111.90
2018-01-11T08:24:56.211Z,126.10
2018-01-11T08:25:56.200Z,104.20
2018-01-11T08:26:56.193Z,86.40
2018-01-11T08:27:56.189Z,95.50
2018-01-11T08:28:56.178Z,106.20
2018-01-11T08:29:56.172Z,112.00
2018-01-11T08:30:56.157Z,90.40
2018-01-11T08:31:56.155Z,98.50
2018-01-11T08:32:56.147Z,100.70
2018-01-11T08:33:56.140Z,183.30
2018-01-11T08:34:56.159Z,146.20
2018-01-11T08:35:56.124Z,107.50
2018-01-11T08:36:56.121Z,144.90
2018-01-11T08:37:56.107Z,152.20
2018-01-11T08:38:56.104Z,139.40
2018-01-11T08:39:56.092Z,114.90
2018-01-11T08:40:56.088Z,132.50
2018-01-11T08:41:56.077Z,151.40
2018-01-11T08:42:56.074Z,161.50
2018-01-11T08:43:56.062Z,127.60
2018-01-11T08:44:56.059Z,121.50
2018-01-11T08:45:56.050Z,132.90
2018-01-11T08:46:56.043Z,135.00
2018-01-11T08:47:56.033Z,132.10
2018-01-11T08:48:56.031Z,135.60
2018-01-11T08:49:56.018Z,156.70
2018-01-11T08:50:56.014Z,132.60
2018-01-11T08:51:56.008Z,111.70
2018-01-11T08:52:55.996Z,101.80
2018-01-11T08:53:55.991Z,112.70
2018-01-11T08:54:55.986Z,84.60
2018-01-11T08:55:55.977Z,113.20
2018-01-11T08:56:55.974Z,130.70
2018-01-11T08:57:55.961Z,126.20
2018-01-11T08:58:55.952Z,109.00
2018-01-11T08:59:55.949Z,139.80
2018-01-11T09:00:55.939Z,101.10
2018-01-11T09:01:55.930Z,110.00
2018-01-11T09:02:55.924Z,103.50
2018-01-11T09:03:55.916Z,163.10
2018-01-11T09:04:55.907Z,122.80
2018-01-11T09:05:55.902Z,156.20
2018-01-11T09:06:55.892Z,155.30
2018-01-11T09:07:55.888Z,144.20
2018-01-11T09:08:55.881Z,151.30
2018-01-11T09:09:55.870Z,160.80
2018-01-11T09:10:55.865Z,132.10
2018-01-11T09:11:55.857Z,155.20
2018-01-11T09:12:55.850Z,170.20
2018-01-11T09:13:55.841Z,130.60
2018-01-11T09:14:55.838Z,109.60
2018-01-11T09:15:55.823Z,102.10
2018-01-11T09:16:55.818Z,101.80
2018-01-11T09:17:55.810Z,107.90
2018-01-11T09:18:55.827Z,117.70
2018-01-11T09:19:55.797Z,124.40
2018-01-11T09:20:55.790Z,113.20
2018-01-11T09:21:55.780Z,99.80
2018-01-11T09:22:55.774Z,107.40
2018-01-11T09:23:55.768Z,126.00
2018-01-11T09:24:55.760Z,103.00
2018-01-11T09:25:55.759Z,115.70
2018-01-11T09:26:55.795Z,99.50
2018-01-11T09:27:55.739Z,121.60
2018-01-11T09:28:55.727Z,126.90
2018-01-11T09:29:55.725Z,112.30
2018-01-11T09:30:55.718Z,89.40
2018-01-11T09:31:55.708Z,127.40
2018-01-11T09:32:55.699Z,113.60
2018-01-11T09:33:55.692Z,101.60
2018-01-11T09:34:55.684Z,101.00
2018-01-11T09:35:55.678Z,118.20
2018-01-11T09:36:55.672Z,111.80
2018-01-11T09:37:55.663Z,125.20
2018-01-11T09:38:55.655Z,119.40
2018-01-11T09:39:55.651Z,148.50
2018-01-11T09:40:55.649Z,110.10
2018-01-11T09:41:55.631Z,95.30
2018-01-11T09:42:55.627Z,109.80
2018-01-11T09:43:55.618Z,95.20
2018-01-11T09:44:55.609Z,90.00
2018-01-11T09:45:55.604Z,79.20
2018-01-11T09:46:55.597Z,87.90
2018-01-11T09:47:55.588Z,78.10
2018-01-11T09:48:55.618Z,75.50
2018-01-11T09:49:55.573Z,65.30
2018-01-11T09:50:55.567Z,79.50
2018-01-11T09:51:55.559Z,69.10
2018-01-11T09:52:55.551Z,73.10
2018-01-11T09:53:55.544Z,71.40
2018-01-11T09:54:55.536Z,87.00
2018-01-11T09:55:55.528Z,90.20
2018-01-11T09:56:55.524Z,78.00
2018-01-11T09:57:55.517Z,67.60
2018-01-11T09:58:55.506Z,76.80
2018-01-11T09:59:55.504Z,78.70
2018-01-11T10:00:55.492Z,84.30
2018-01-11T10:01:55.505Z,68.50
2018-01-11T10:02:55.477Z,76.50
2018-01-11T10:03:55.471Z,64.80
2018-01-11T10:04:55.465Z,68.60
2018-01-11T10:05:55.457Z,87.30
2018-01-11T10:06:55.464Z,70.60
2018-01-11T10:07:55.473Z,73.60
2018-01-11T10:08:55.439Z,80.20
2018-01-11T10:09:55.427Z,70.10
2018-01-11T10:10:55.419Z,73.10
2018-01-11T10:11:55.412Z,59.70
2018-01-11T10:12:55.406Z,58.00
2018-01-11T10:13:55.398Z,61.90
2018-01-11T10:14:55.390Z,66.20
2018-01-11T10:15:55.379Z,63.20
2018-01-11T10:16:55.378Z,59.00
2018-01-11T10:17:55.369Z,71.10
2018-01-11T10:18:55.365Z,58.40
2018-01-11T10:19:55.355Z,53.50
2018-01-11T10:20:55.348Z,56.60
2018-01-11T10:21:55.341Z,56.50
2018-01-11T10:22:55.333Z,56.40
2018-01-11T10:23:55.324Z,55.90
2018-01-11T10:24:55.321Z,63.50
2018-01-11T10:25:55.312Z,66.30
2018-01-11T10:26:55.306Z,57.90
2018-01-11T10:27:55.299Z,69.90
2018-01-11T10:28:55.292Z,66.50
2018-01-11T10:29:55.283Z,70.50
2018-01-11T10:30:55.276Z,62.90
2018-01-11T10:31:55.268Z,56.10
2018-01-11T10:32:55.269Z,56.80
2018-01-11T10:33:55.255Z,64.20
2018-01-11T10:34:55.249Z,62.70
2018-01-11T10:35:55.246Z,57.70
2018-01-11T10:36:55.240Z,63.70
2018-01-11T10:37:55.229Z,65.40
2018-01-11T10:38:55.219Z,57.50
2018-01-11T10:39:55.214Z,56.20
2018-01-11T10:40:55.208Z,55.70
2018-01-11T10:41:55.202Z,55.70
2018-01-11T10:42:55.193Z,59.60
2018-01-11T10:43:55.187Z,58.70
2018-01-11T10:44:55.180Z,59.30
2018-01-11T10:45:55.186Z,57.40
2018-01-11T10:46:55.163Z,56.70
2018-01-11T10:47:55.160Z,54.90
2018-01-11T10:48:55.155Z,52.70
2018-01-11T10:49:55.149Z,50.30
2018-01-11T10:50:55.137Z,52.90
2018-01-11T10:51:55.130Z,55.40
2018-01-11T10:52:55.123Z,59.60
2018-01-11T10:53:55.115Z,55.80
2018-01-11T10:54:55.126Z,60.50
2018-01-11T10:55:55.104Z,60.00
2018-01-11T10:56:55.096Z,59.60
2018-01-11T10:57:55.092Z,62.80
2018-01-11T10:58:55.082Z,58.70
2018-01-11T10:59:55.077Z,51.60
2018-01-11T11:00:55.069Z,53.40
2018-01-11T11:01:55.063Z,55.30
2018-01-11T11:02:55.053Z,70.60
2018-01-11T11:03:55.050Z,56.60
2018-01-11T11:04:55.042Z,60.60
2018-01-11T11:05:55.035Z,57.80
2018-01-11T11:06:55.026Z,61.50
2018-01-11T11:07:55.021Z,62.50
2018-01-11T11:08:55.015Z,68.60
2018-01-11T11:09:55.007Z,74.30
2018-01-11T11:10:54.999Z,66.80
2018-01-11T11:11:54.994Z,74.90
2018-01-11T11:12:54.988Z,64.70
2018-01-11T11:13:54.979Z,61.00
2018-01-11T11:14:54.972Z,63.60
2018-01-11T11:15:54.966Z,58.80
2018-01-11T11:16:54.958Z,61.70
2018-01-11T11:17:54.951Z,57.90
2018-01-11T11:18:54.945Z,56.70
2018-01-11T11:19:54.937Z,57.30
2018-01-11T11:20:54.935Z,58.00
2018-01-11T11:21:54.925Z,60.20
2018-01-11T11:22:54.921Z,64.60
2018-01-11T11:23:54.912Z,70.30
2018-01-11T11:24:54.904Z,63.60
2018-01-11T11:25:54.897Z,68.10
2018-01-11T11:26:54.891Z,65.50
2018-01-11T11:27:54.884Z,71.60
2018-01-11T11:28:54.878Z,61.10
2018-01-11T11:29:54.868Z,59.70
2018-01-11T11:30:54.865Z,61.90
2018-01-11T11:31:54.856Z,72.60
2018-01-11T11:32:54.851Z,77.10
2018-01-11T11:33:54.842Z,78.20
2018-01-11T11:34:54.835Z,62.10
2018-01-11T11:35:54.830Z,65.50
2018-01-11T11:36:54.825Z,77.00
2018-01-11T11:37:54.815Z,68.50
2018-01-11T11:38:54.807Z,64.10
2018-01-11T11:39:54.804Z,69.10
2018-01-11T11:40:54.801Z,85.60
2018-01-11T11:41:54.790Z,78.90
2018-01-11T11:42:54.781Z,75.10
2018-01-11T11:43:54.777Z,72.40
2018-01-11T11:44:54.767Z,72.40
2018-01-11T11:45:54.765Z,64.10
2018-01-11T11:46:54.756Z,75.80
2018-01-11T11:47:54.753Z,63.70
2018-01-11T11:48:54.740Z,75.90
2018-01-11T11:49:54.733Z,83.40
2018-01-11T11:50:54.728Z,72.30
2018-01-11T11:51:54.722Z,67.80
2018-01-11T11:52:54.713Z,60.30
2018-01-11T11:53:54.704Z,66.70
2018-01-11T11:54:54.700Z,59.30
2018-01-11T11:55:54.695Z,60.20
2018-01-11T11:56:54.687Z,61.60
2018-01-11T11:57:54.679Z,59.40
2018-01-11T11:58:54.673Z,63.40
2018-01-11T11:59:54.667Z,58.40
2018-01-11T12:00:54.660Z,54.00
2018-01-11T12:01:54.654Z,53.70
2018-01-11T12:02:54.654Z,57.40
2018-01-11T12:03:54.640Z,56.00
2018-01-11T12:04:54.636Z,61.20
2018-01-11T12:05:54.626Z,55.60
2018-01-11T12:06:54.621Z,52.00
2018-01-11T12:07:54.614Z,55.10
2018-01-11T12:08:54.606Z,56.00
2018-01-11T12:09:54.604Z,57.80
2018-01-11T12:10:54.610Z,60.30
2018-01-11T12:11:54.588Z,54.90
2018-01-11T12:12:54.578Z,58.90
2018-01-11T12:13:54.570Z,59.50
2018-01-11T12:14:54.566Z,56.80
2018-01-11T12:15:54.558Z,57.70
2018-01-11T12:16:54.554Z,58.30
2018-01-11T12:17:54.546Z,57.40
2018-01-11T12:18:54.546Z,56.40
2018-01-11T12:19:54.534Z,55.10
2018-01-11T12:20:54.528Z,61.40
2018-01-11T12:21:54.520Z,63.40
2018-01-11T12:22:54.517Z,64.20
2018-01-11T12:23:54.507Z,69.90
2018-01-11T12:24:54.499Z,73.40
2018-01-11T12:25:54.492Z,68.40
2018-01-11T12:26:54.482Z,65.00
2018-01-11T12:27:54.484Z,66.90
2018-01-11T12:28:54.472Z,59.00
2018-01-11T12:29:54.465Z,72.60
2018-01-11T12:30:54.460Z,57.90
2018-01-11T12:31:54.452Z,63.90
2018-01-11T12:32:54.445Z,53.70
2018-01-11T12:33:54.438Z,53.00
2018-01-11T12:34:54.431Z,61.90
2018-01-11T12:35:54.425Z,62.10
2018-01-11T12:36:54.420Z,57.10
2018-01-11T12:37:54.411Z,54.90
2018-01-11T12:38:54.444Z,53.90
2018-01-11T12:39:54.397Z,53.50
2018-01-11T12:40:54.392Z,52.60
2018-01-11T12:41:54.385Z,61.10
2018-01-11T12:42:54.381Z,52.30